createdAt,value
2018-05-15T00:01:37.933Z,13.53
2018-05-15T00:04:05.440Z,12.73
2018-05-15T00:06:33.037Z,13.63
2018-05-15T00:09:00.747Z,13.00
2018-05-15T00:11:28.304Z,13.30
2018-05-15T00:13:55.967Z,13.07
2018-05-15T00:16:23.494Z,12.60
2018-05-15T00:18:51.017Z,13.03
2018-05-15T00:21:18.547Z,13.70
2018-05-15T00:23:46.143Z,13.80
2018-05-15T00:26:13.723Z,13.20
2018-05-15T00:28:41.252Z,12.90
2018-05-15T00:31:08.938Z,12.60
2018-05-15T00:33:36.474Z,13.00
2018-05-15T00:36:04.089Z,12.77
2018-05-15T00:38:31.978Z,12.80
2018-05-15T00:40:59.529Z,13.23
2018-05-15T00:43:27.067Z,12.20
2018-05-15T00:45:54.687Z,12.97
2018-05-15T00:48:22.285Z,13.17
2018-05-15T00:50:49.876Z,12.83
2018-05-15T00:53:17.432Z,13.10
2018-05-15T00:55:45.000Z,12.20
2018-05-15T00:58:12.581Z,14.43
2018-05-15T01:00:40.195Z,12.90
2018-05-15T01:03:07.911Z,13.70
2018-05-15T01:05:35.449Z,13.53
2018-05-15T01:08:02.950Z,12.77
2018-05-15T01:10:30.818Z,13.17
2018-05-15T01:12:58.334Z,13.80
2018-05-15T01:15:25.906Z,12.57
2018-05-15T01:17:53.685Z,13.47
2018-05-15T01:20:21.224Z,13.80
2018-05-15T01:22:48.735Z,13.27
2018-05-15T01:25:16.779Z,13.47
2018-05-15T01:27:44.401Z,13.43
2018-05-15T01:30:12.167Z,13.67
2018-05-15T01:32:39.975Z,13.00
2018-05-15T01:35:07.593Z,13.30
2018-05-15T01:37:35.188Z,13.30
2018-05-15T01:40:03.637Z,13.13
2018-05-15T01:42:31.162Z,13.23
2018-05-15T01:44:58.785Z,13.00
2018-05-15T01:47:26.387Z,13.10
2018-05-15T01:49:54.234Z,13.30
2018-05-15T01:52:21.857Z,13.47
2018-05-15T01:54:49.436Z,13.00
2018-05-15T01:57:16.961Z,12.93
2018-05-15T01:59:44.524Z,12.70
2018-05-15T02:02:12.052Z,13.40
2018-05-15T02:04:39.609Z,13.60
2018-05-15T02:07:07.184Z,14.07
2018-05-15T02:09:34.737Z,14.13
2018-05-15T02:12:02.394Z,14.33
2018-05-15T02:14:29.914Z,13.57
2018-05-15T02:16:57.619Z,13.47
2018-05-15T02:19:25.148Z,13.83
2018-05-15T02:21:52.687Z,13.50
2018-05-15T02:24:20.217Z,14.03
2018-05-15T02:26:47.778Z,13.67
2018-05-15T02:29:15.613Z,14.13
2018-05-15T02:31:43.482Z,14.30
2018-05-15T02:34:11.093Z,14.00
2018-05-15T02:36:38.909Z,13.60
2018-05-15T02:39:06.429Z,13.87
2018-05-15T02:41:34.008Z,13.47
2018-05-15T02:44:01.551Z,12.30
2018-05-15T02:46:29.579Z,13.30
2018-05-15T02:48:57.168Z,13.20
2018-05-15T02:51:24.730Z,13.40
2018-05-15T02:53:52.289Z,13.50
2018-05-15T02:56:19.783Z,13.40
2018-05-15T02:58:47.397Z,13.97
2018-05-15T03:01:14.870Z,13.67
2018-05-15T03:03:42.691Z,13.17
2018-05-15T03:06:10.412Z,13.10
2018-05-15T03:08:37.953Z,13.60
2018-05-15T03:11:05.465Z,13.80
2018-05-15T03:13:32.988Z,13.83
2018-05-15T03:16:00.488Z,13.97
2018-05-15T03:18:28.070Z,13.67
2018-05-15T03:20:55.584Z,14.23
2018-05-15T03:23:23.121Z,14.17
2018-05-15T03:25:51.340Z,13.70
2018-05-15T03:28:19.126Z,13.70
2018-05-15T03:30:46.668Z,14.03
2018-05-15T03:33:14.677Z,15.20
2018-05-15T03:35:42.207Z,13.13
2018-05-15T03:38:09.751Z,13.80
2018-05-15T03:40:37.832Z,13.50
2018-05-15T03:43:05.322Z,13.87
2018-05-15T03:45:32.837Z,13.63
2018-05-15T03:48:00.371Z,13.90
2018-05-15T03:50:28.012Z,13.67
2018-05-15T03:52:55.553Z,13.27
2018-05-15T03:55:23.115Z,13.60
2018-05-15T03:57:50.655Z,14.57
2018-05-15T04:00:30.194Z,13.63
2018-05-15T04:03:09.445Z,14.43
2018-05-15T04:05:49.051Z,14.10
2018-05-15T04:08:16.574Z,13.20
2018-05-15T04:10:44.215Z,13.60
2018-05-15T04:13:11.769Z,14.27
2018-05-15T04:15:39.363Z,13.30
2018-05-15T04:18:07.647Z,13.30
2018-05-15T04:20:35.165Z,13.67
2018-05-15T04:23:02.679Z,12.83
2018-05-15T04:25:30.206Z,14.63
2018-05-15T04:27:57.769Z,13.23
2018-05-15T04:30:25.317Z,14.80
2018-05-15T04:32:52.842Z,14.33
2018-05-15T04:35:20.623Z,13.87
2018-05-15T04:37:47.982Z,14.90
2018-05-15T04:40:15.503Z,14.03
2018-05-15T04:42:43.200Z,13.97
2018-05-15T04:45:10.727Z,14.97
2018-05-15T04:47:38.255Z,15.00
2018-05-15T04:50:06.107Z,14.73
2018-05-15T04:52:33.640Z,14.00
2018-05-15T04:55:01.251Z,14.33
2018-05-15T04:57:28.767Z,15.67
2018-05-15T04:59:57.219Z,14.67
2018-05-15T05:02:24.744Z,15.83
2018-05-15T05:04:52.358Z,15.20
2018-05-15T05:07:19.921Z,14.90
2018-05-15T05:09:47.454Z,14.97
2018-05-15T05:12:15.665Z,15.73
2018-05-15T05:14:43.355Z,15.83
2018-05-15T05:17:10.938Z,15.20
2018-05-15T05:19:38.446Z,15.03
2018-05-15T05:22:06.029Z,14.87
2018-05-15T05:24:33.524Z,15.40
2018-05-15T05:27:01.041Z,17.17
2018-05-15T05:29:28.812Z,14.50
2018-05-15T05:31:56.341Z,15.23
2018-05-15T05:34:23.866Z,16.00
2018-05-15T05:36:51.389Z,15.70
2018-05-15T05:39:18.969Z,15.50
2018-05-15T05:41:46.822Z,15.20
2018-05-15T05:44:14.366Z,15.30
2018-05-15T05:46:42.153Z,14.80
2018-05-15T05:49:09.672Z,15.10
2018-05-15T05:51:37.228Z,14.20
2018-05-15T05:54:04.737Z,15.30
2018-05-15T05:56:32.279Z,15.10
2018-05-15T05:58:59.853Z,14.90
2018-05-15T06:01:27.377Z,16.23
2018-05-15T06:03:54.955Z,14.43
2018-05-15T06:06:22.505Z,13.90
2018-05-15T06:08:50.319Z,16.00
2018-05-15T06:11:17.859Z,15.80
2018-05-15T06:13:45.724Z,14.73
2018-05-15T06:16:13.291Z,14.70
2018-05-15T06:18:40.823Z,15.80
2018-05-15T06:21:08.382Z,15.50
2018-05-15T06:23:35.887Z,14.63
2018-05-15T06:26:03.407Z,14.77
2018-05-15T06:28:30.972Z,14.53
2018-05-15T06:30:58.526Z,15.47
2018-05-15T06:33:26.114Z,16.23
2018-05-15T06:35:53.680Z,16.00
2018-05-15T06:38:21.404Z,14.00
2018-05-15T06:40:48.911Z,15.63
2018-05-15T06:43:16.495Z,14.70
2018-05-15T06:45:44.066Z,15.57
2018-05-15T06:48:11.783Z,15.03
2018-05-15T06:50:39.334Z,13.90
2018-05-15T06:53:07.282Z,15.20
2018-05-15T06:55:35.883Z,15.37
2018-05-15T06:58:03.461Z,15.53
2018-05-15T07:00:31.131Z,14.53
2018-05-15T07:02:58.653Z,14.63
2018-05-15T07:05:26.551Z,14.33
2018-05-15T07:07:54.115Z,14.50
2018-05-15T07:10:21.687Z,14.93
2018-05-15T07:12:49.231Z,15.40
2018-05-15T07:15:16.823Z,14.10
2018-05-15T07:17:44.352Z,19.27
2018-05-15T07:20:12.148Z,15.07
2018-05-15T07:22:39.684Z,15.33
2018-05-15T07:25:07.547Z,14.33
2018-05-15T07:27:35.086Z,14.60
2018-05-15T07:30:02.593Z,14.20
2018-05-15T07:32:30.182Z,12.97
2018-05-15T07:34:57.737Z,13.93
2018-05-15T07:37:25.244Z,13.50
2018-05-15T07:39:52.778Z,14.40
2018-05-15T07:42:20.288Z,13.13
2018-05-15T07:44:48.002Z,13.63
2018-05-15T07:47:15.517Z,13.50
2018-05-15T07:49:43.042Z,14.57
2018-05-15T07:52:10.632Z,14.10
2018-05-15T07:54:38.347Z,13.23
2018-05-15T07:57:05.886Z,14.70
2018-05-15T07:59:33.416Z,13.10
2018-05-15T08:02:01.040Z,12.97
2018-05-15T08:04:28.701Z,12.90
2018-05-15T08:06:56.211Z,13.80
2018-05-15T08:09:24.055Z,18.90
2018-05-15T08:11:51.550Z,13.17
2018-05-15T08:14:19.107Z,13.13
2018-05-15T08:16:46.957Z,13.30
2018-05-15T08:19:14.539Z,13.53
2018-05-15T08:21:42.072Z,13.43
2018-05-15T08:24:09.829Z,13.70
2018-05-15T08:26:37.338Z,12.93
2018-05-15T08:29:04.893Z,12.17
2018-05-15T08:31:32.439Z,12.77
2018-05-15T08:34:00.083Z,13.00
2018-05-15T08:36:27.790Z,12.77
2018-05-15T08:38:55.509Z,13.60
2018-05-15T08:41:23.371Z,12.30
2018-05-15T08:43:51.133Z,11.63
2018-05-15T08:46:18.681Z,13.00
2018-05-15T08:48:46.275Z,12.60
2018-05-15T08:51:13.804Z,13.03
2018-05-15T08:53:41.366Z,12.60
2018-05-15T08:56:08.952Z,12.43
2018-05-15T08:58:36.450Z,12.33
2018-05-15T09:01:04.018Z,11.43
2018-05-15T09:03:31.821Z,11.90
2018-05-15T09:05:59.408Z,12.10
2018-05-15T09:08:26.985Z,12.07
2018-05-15T09:10:54.500Z,12.13
2018-05-15T09:13:22.019Z,12.90
2018-05-15T09:15:49.673Z,11.53
2018-05-15T09:18:17.700Z,12.40
2018-05-15T09:20:45.150Z,12.00
2018-05-15T09:23:12.764Z,12.00
2018-05-15T09:25:40.290Z,12.37
2018-05-15T09:28:08.236Z,11.30
2018-05-15T09:30:35.799Z,12.60
2018-05-15T09:33:03.332Z,12.13
2018-05-15T09:35:31.018Z,15.40
2018-05-15T09:37:58.902Z,13.07
2018-05-15T09:40:26.666Z,12.37
2018-05-15T09:42:54.199Z,11.87
2018-05-15T09:45:21.762Z,11.90
2018-05-15T09:47:49.372Z,12.00
2018-05-15T09:50:16.915Z,12.03
2018-05-15T09:52:44.449Z,12.73
2018-05-15T09:55:11.982Z,12.37
2018-05-15T09:57:39.483Z,11.43
2018-05-15T10:00:07.045Z,11.40
2018-05-15T10:02:34.575Z,13.00
2018-05-15T10:05:02.482Z,12.93
2018-05-15T10:07:30.451Z,12.07
2018-05-15T10:09:57.966Z,11.83
2018-05-15T10:12:25.466Z,12.50
2018-05-15T10:14:53.332Z,11.93
2018-05-15T10:17:20.863Z,12.23
2018-05-15T10:19:48.436Z,12.10
2018-05-15T10:22:16.320Z,12.20
2018-05-15T10:24:43.867Z,12.70
2018-05-15T10:27:11.508Z,12.20
2018-05-15T10:29:39.310Z,12.37
2018-05-15T10:32:06.835Z,12.77
2018-05-15T10:34:34.705Z,11.80
2018-05-15T10:37:02.312Z,11.67
2018-05-15T10:39:30.168Z,12.50
2018-05-15T10:41:58.595Z,11.43
2018-05-15T10:44:26.214Z,11.67
2018-05-15T10:46:53.749Z,11.40
2018-05-15T10:49:22.766Z,12.13
2018-05-15T10:51:50.659Z,11.27
2018-05-15T10:54:18.215Z,11.23
2018-05-15T10:56:45.867Z,11.53
2018-05-15T10:59:13.406Z,12.07
2018-05-15T11:01:40.929Z,10.93
2018-05-15T11:04:08.985Z,11.10
2018-05-15T11:06:37.230Z,11.00
2018-05-15T11:09:04.857Z,12.00
2018-05-15T11:11:32.531Z,12.00
2018-05-15T11:14:00.216Z,12.17
2018-05-15T11:16:27.781Z,11.13
2018-05-15T11:18:55.554Z,12.27
2018-05-15T11:21:35.431Z,12.00
2018-05-15T11:28:22.605Z,12.57
2018-05-15T11:30:50.140Z,12.50
2018-05-15T11:33:22.624Z,11.73
2018-05-15T11:35:50.551Z,12.07
2018-05-15T11:38:20.479Z,11.50
2018-05-15T11:40:49.944Z,12.40
2018-05-15T11:43:17.584Z,12.83
2018-05-15T11:45:45.491Z,11.33
2018-05-15T11:48:14.141Z,11.73
2018-05-15T11:50:42.972Z,12.20
2018-05-15T11:53:10.638Z,12.30
2018-05-15T11:55:42.711Z,11.20
2018-05-15T11:58:05.235Z,12.03
2018-05-15T12:00:35.074Z,12.50
2018-05-15T12:03:02.630Z,12.20
2018-05-15T12:05:30.847Z,11.80
2018-05-15T12:07:59.235Z,12.40
2018-05-15T12:10:26.883Z,12.27
2018-05-15T12:12:54.470Z,13.20
2018-05-15T12:15:22.280Z,12.00
2018-05-15T12:17:51.605Z,11.23
2018-05-15T12:20:19.164Z,11.50
2018-05-15T12:22:47.194Z,11.70
2018-05-15T12:25:14.790Z,12.03
2018-05-15T12:27:43.322Z,11.27
2018-05-15T12:30:09.892Z,11.93
2018-05-15T12:32:37.442Z,11.20
2018-05-15T12:35:05.114Z,11.57
2018-05-15T12:37:32.916Z,11.60
2018-05-15T12:40:00.602Z,11.80
2018-05-15T12:42:28.202Z,11.70
2018-05-15T12:44:55.725Z,11.70
2018-05-15T12:47:23.292Z,11.23
2018-05-15T12:49:50.971Z,11.20
2018-05-15T12:52:18.590Z,10.80
2018-05-15T12:54:46.139Z,11.73
2018-05-15T12:57:13.702Z,11.10
2018-05-15T12:59:41.211Z,11.23
2018-05-15T13:02:08.825Z,11.43
2018-05-15T13:04:36.337Z,11.77
2018-05-15T13:07:03.925Z,12.10
2018-05-15T13:09:31.690Z,11.27
2018-05-15T13:11:59.176Z,11.07
2018-05-15T13:14:27.622Z,12.17
2018-05-15T13:16:55.251Z,11.73
2018-05-15T13:19:22.895Z,12.30
2018-05-15T13:21:50.417Z,11.57
2018-05-15T13:24:17.966Z,11.30
2018-05-15T13:26:45.491Z,12.20
2018-05-15T13:29:13.405Z,11.60
2018-05-15T13:31:40.919Z,11.80
2018-05-15T13:34:08.447Z,11.33
2018-05-15T13:36:36.096Z,11.07
2018-05-15T13:39:03.645Z,12.10
2018-05-15T13:41:31.500Z,11.70
2018-05-15T13:43:59.084Z,11.60
2018-05-15T13:46:26.591Z,11.87
2018-05-15T13:48:54.144Z,11.00
2018-05-15T13:51:21.655Z,12.10
2018-05-15T13:53:49.227Z,11.10
2018-05-15T13:56:16.831Z,13.30
2018-05-15T13:58:44.636Z,10.90
2018-05-15T14:01:12.191Z,10.40
2018-05-15T14:03:39.714Z,10.63
2018-05-15T14:06:07.269Z,10.07
2018-05-15T14:08:34.812Z,10.53
2018-05-15T14:11:02.656Z,10.40
2018-05-15T14:13:30.208Z,10.60
2018-05-15T14:15:57.817Z,10.70
2018-05-15T14:18:25.452Z,10.13
2018-05-15T14:20:53.481Z,10.87
2018-05-15T14:23:21.519Z,10.83
2018-05-15T14:25:49.153Z,11.50
2018-05-15T14:28:16.670Z,11.67
2018-05-15T14:30:44.277Z,11.70
2018-05-15T14:33:11.852Z,12.27
2018-05-15T14:35:39.372Z,12.20
2018-05-15T14:38:06.928Z,12.10
2018-05-15T14:40:34.482Z,11.70
2018-05-15T14:43:14.822Z,11.97
2018-05-15T14:45:42.352Z,11.80
2018-05-15T14:48:09.877Z,12.40
2018-05-15T14:50:49.356Z,12.77
2018-05-15T14:53:17.042Z,12.10
2018-05-15T14:55:44.616Z,12.00
2018-05-15T14:58:12.199Z,11.70
2018-05-15T15:00:39.731Z,12.17
2018-05-15T15:03:07.349Z,12.00
2018-05-15T15:05:34.915Z,12.13
2018-05-15T15:08:02.588Z,11.43
2018-05-15T15:10:30.143Z,12.37
2018-05-15T15:12:57.712Z,12.27
2018-05-15T15:15:25.251Z,11.33
2018-05-15T15:17:53.574Z,10.80
2018-05-15T15:20:22.034Z,10.90
2018-05-15T15:22:49.615Z,10.50
2018-05-15T15:25:17.515Z,10.77
2018-05-15T15:27:45.477Z,11.03
2018-05-15T15:30:13.316Z,10.47
2018-05-15T15:32:40.898Z,10.50
2018-05-15T15:35:08.450Z,10.57
2018-05-15T15:37:36.323Z,9.80
2018-05-15T15:40:04.067Z,10.90
2018-05-15T15:42:31.726Z,11.33
2018-05-15T15:44:59.186Z,10.77
2018-05-15T15:47:26.753Z,10.97
2018-05-15T15:49:54.319Z,11.07
2018-05-15T15:52:21.829Z,10.30
2018-05-15T15:54:50.558Z,10.57
2018-05-15T15:57:18.216Z,10.50
2018-05-15T15:59:45.821Z,10.10
2018-05-15T16:02:13.452Z,9.50
2018-05-15T16:04:42.502Z,10.17
2018-05-15T16:07:10.499Z,9.80
2018-05-15T16:09:38.105Z,9.70
2018-05-15T16:12:06.004Z,10.87
2018-05-15T16:14:33.805Z,9.90
2018-05-15T16:17:01.752Z,10.20
2018-05-15T16:19:29.958Z,10.17
2018-05-15T16:21:58.006Z,9.70
2018-05-15T16:24:25.632Z,10.20
2018-05-15T16:26:53.204Z,9.80
2018-05-15T16:29:20.975Z,10.43
2018-05-15T16:31:48.588Z,10.37
2018-05-15T16:34:16.166Z,10.30
2018-05-15T16:36:44.159Z,10.80
2018-05-15T16:39:12.239Z,11.10
2018-05-15T16:41:39.790Z,10.20
2018-05-15T16:44:07.522Z,9.90
2018-05-15T16:46:35.099Z,10.33
2018-05-15T16:49:03.025Z,10.43
2018-05-15T16:51:30.594Z,10.20
2018-05-15T16:53:58.159Z,10.37
2018-05-15T16:56:25.691Z,10.70
2018-05-15T16:58:53.490Z,10.10
2018-05-15T17:01:21.165Z,10.50
2018-05-15T17:03:48.695Z,10.93
2018-05-15T17:06:16.289Z,10.93
2018-05-15T17:08:43.838Z,10.60
2018-05-15T17:11:11.551Z,11.50
2018-05-15T17:13:39.239Z,10.87
2018-05-15T17:16:06.704Z,11.57
2018-05-15T17:18:34.381Z,10.97
2018-05-15T17:21:02.242Z,11.27
2018-05-15T17:23:29.843Z,11.03
2018-05-15T17:25:57.505Z,10.83
2018-05-15T17:28:25.019Z,10.20
2018-05-15T17:30:52.682Z,10.83
2018-05-15T17:33:20.225Z,10.50
2018-05-15T17:35:47.770Z,11.03
2018-05-15T17:38:15.299Z,11.20
2018-05-15T17:40:43.279Z,10.50
2018-05-15T17:43:10.854Z,10.70
2018-05-15T17:45:38.448Z,11.17
2018-05-15T17:48:06.021Z,10.90
2018-05-15T17:50:34.481Z,11.40
2018-05-15T17:53:02.333Z,11.40
2018-05-15T17:55:30.308Z,11.60
2018-05-15T17:57:59.227Z,11.13
2018-05-15T18:00:26.914Z,12.90
2018-05-15T18:02:54.453Z,12.60
2018-05-15T18:05:22.051Z,15.87
2018-05-15T18:07:49.609Z,16.90
2018-05-15T18:10:17.209Z,20.13
2018-05-15T18:12:45.349Z,26.30
2018-05-15T18:15:12.955Z,28.10
2018-05-15T18:17:40.802Z,38.13
2018-05-15T18:20:09.296Z,38.17
2018-05-15T18:22:36.815Z,37.40
2018-05-15T18:25:04.523Z,31.50
2018-05-15T18:27:32.336Z,27.50
2018-05-15T18:29:59.980Z,30.53
2018-05-15T18:32:27.979Z,21.47
2018-05-15T18:34:55.565Z,16.80
2018-05-15T18:37:24.652Z,14.60
2018-05-15T18:39:52.168Z,14.77
2018-05-15T18:42:19.722Z,12.77
2018-05-15T18:44:47.555Z,12.07
2018-05-15T18:47:15.127Z,13.30
2018-05-15T18:49:42.657Z,12.67
2018-05-15T18:52:10.247Z,12.37
2018-05-15T18:54:38.063Z,11.97
2018-05-15T18:57:05.779Z,11.97
2018-05-15T18:59:33.427Z,12.33
2018-05-15T19:02:01.026Z,13.30
2018-05-15T19:04:28.560Z,12.50
2018-05-15T19:06:56.419Z,12.63
2018-05-15T19:09:24.101Z,12.77
2018-05-15T19:11:51.656Z,12.33
2018-05-15T19:14:19.242Z,12.20
2018-05-15T19:16:46.763Z,12.77
2018-05-15T19:19:14.364Z,12.00
2018-05-15T19:21:41.849Z,12.07
2018-05-15T19:24:09.442Z,12.80
2018-05-15T19:26:37.414Z,11.47
2018-05-15T19:29:04.943Z,11.97
2018-05-15T19:31:37.683Z,12.83
2018-05-15T19:34:11.188Z,12.80
2018-05-15T19:36:44.434Z,12.00
2018-05-15T19:39:12.333Z,12.50
2018-05-15T19:41:39.908Z,12.93
2018-05-15T19:44:07.439Z,12.60
2018-05-15T19:46:34.965Z,12.27
2018-05-15T19:49:02.516Z,12.10
2018-05-15T19:51:30.052Z,14.30
2018-05-15T19:53:58.192Z,12.90
2018-05-15T19:56:25.971Z,12.73
2018-05-15T19:58:53.840Z,12.70
2018-05-15T20:01:21.344Z,13.77
2018-05-15T20:03:48.876Z,13.57
2018-05-15T20:06:16.454Z,14.20
2018-05-15T20:08:44.140Z,13.43
2018-05-15T20:11:11.801Z,13.83
2018-05-15T20:13:39.348Z,14.33
2018-05-15T20:16:06.951Z,14.73
2018-05-15T20:18:35.168Z,14.20
2018-05-15T20:21:03.116Z,15.77
2018-05-15T20:23:30.682Z,15.83
2018-05-15T20:25:58.253Z,13.90
2018-05-15T20:28:25.892Z,15.40
2018-05-15T20:30:53.650Z,15.10
2018-05-15T20:33:21.233Z,14.57
2018-05-15T20:35:48.769Z,15.67
2018-05-15T20:38:16.303Z,14.80
2018-05-15T20:40:43.822Z,14.20
2018-05-15T20:43:11.714Z,15.03
2018-05-15T20:45:39.251Z,15.40
2018-05-15T20:48:06.778Z,16.10
2018-05-15T20:50:34.322Z,15.03
2018-05-15T20:53:01.924Z,14.93
2018-05-15T20:55:29.447Z,14.30
2018-05-15T20:57:56.998Z,15.70
2018-05-15T21:00:26.553Z,15.67
2018-05-15T21:02:54.104Z,14.90
2018-05-15T21:05:21.671Z,16.47
2018-05-15T21:07:49.252Z,14.70
2018-05-15T21:10:16.985Z,15.33
2018-05-15T21:12:45.479Z,14.93
2018-05-15T21:15:15.678Z,14.70
2018-05-15T21:17:44.282Z,14.87
2018-05-15T21:20:15.483Z,15.37
2018-05-15T21:22:43.111Z,15.97
2018-05-15T21:25:10.919Z,15.73
2018-05-15T21:27:38.822Z,15.47
2018-05-15T21:30:06.380Z,15.70
2018-05-15T21:32:34.190Z,15.80
2018-05-15T21:35:01.737Z,15.87
2018-05-15T21:37:29.392Z,16.10
2018-05-15T21:39:56.909Z,16.00
2018-05-15T21:42:25.119Z,17.10
2018-05-15T21:44:52.882Z,15.87
2018-05-15T21:47:20.471Z,16.57
2018-05-15T21:49:48.297Z,17.20
2018-05-15T21:52:15.803Z,17.17
2018-05-15T21:54:43.330Z,17.33
2018-05-15T21:57:10.847Z,17.90
2018-05-15T21:59:38.384Z,17.10
2018-05-15T22:02:05.895Z,16.90
2018-05-15T22:04:33.671Z,16.70
2018-05-15T22:07:01.853Z,17.70
2018-05-15T22:09:29.373Z,17.60
2018-05-15T22:12:08.610Z,16.53
2018-05-15T22:14:48.049Z,18.10
2018-05-15T22:17:27.442Z,18.23
2018-05-15T22:20:06.807Z,17.60
2018-05-15T22:22:33.829Z,17.90
2018-05-15T22:25:01.936Z,17.33
2018-05-15T22:27:29.612Z,18.53
2018-05-15T22:29:57.295Z,18.63
2018-05-15T22:32:24.817Z,19.60
2018-05-15T22:34:52.469Z,18.37
2018-05-15T22:37:20.282Z,17.80
2018-05-15T22:39:47.810Z,18.20
2018-05-15T22:42:15.354Z,18.07
2018-05-15T22:44:42.885Z,19.20
2018-05-15T22:47:10.419Z,20.33
2018-05-15T22:49:37.952Z,18.43
2018-05-15T22:52:05.756Z,20.07
2018-05-15T22:54:33.634Z,19.37
2018-05-15T22:57:01.132Z,18.80
2018-05-15T22:59:28.653Z,19.50
2018-05-15T23:01:56.151Z,19.60
2018-05-15T23:04:23.683Z,19.50
2018-05-15T23:06:51.216Z,19.43
2018-05-15T23:09:18.741Z,19.43
2018-05-15T23:11:46.260Z,18.40
2018-05-15T23:14:13.797Z,20.00
2018-05-15T23:16:41.563Z,19.70
2018-05-15T23:19:09.070Z,19.63
2018-05-15T23:21:36.890Z,19.83
2018-05-15T23:24:04.460Z,19.50
2018-05-15T23:26:31.988Z,20.47
2018-05-15T23:28:59.503Z,20.30
2018-05-15T23:31:27.040Z,20.90
2018-05-15T23:33:54.702Z,21.07
2018-05-15T23:36:22.261Z,20.73
2018-05-15T23:38:50.125Z,20.00
2018-05-15T23:41:17.660Z,19.63
2018-05-15T23:43:45.255Z,19.07
2018-05-15T23:46:12.804Z,20.50
2018-05-15T23:48:40.302Z,20.70
2018-05-15T23:51:07.823Z,21.87
2018-05-15T23:53:35.691Z,21.67
2018-05-15T23:56:03.226Z,20.60
2018-05-15T23:58:30.752Z,21.23
